Time;durP1;ratioP1;P1;durP2;ratioP2;P2;SDS_P1;SDS_P2;PMS_P1;PMS_P2;Temp;Humidity;BMP_temperature;BMP_pressure;BME280_temperature;BME280_humidity;BME280_pressure;Samples;Min_cycle;Max_cycle;Signal;HPM_P1;HPM_P2
2022/11/09 00:01:27;;;;;;;;;;;14.40;99.90;;;;;;5065862;28;19922;-72
2022/11/09 00:03:54;;;;;;;;;;;14.30;99.90;;;;;;5064405;28;19920;-72
2022/11/09 00:06:19;;;;;;;;;;;14.40;99.90;;;;;;5048400;28;19916;-72
2022/11/09 00:08:45;;;;;;;;;;;14.50;99.90;;;;;;5067301;28;19913;-72
2022/11/09 00:11:10;;;;;;;;;;;14.50;99.90;;;;;;5069656;28;19923;-72
2022/11/09 00:13:37;;;;;;;;;;;14.50;99.90;;;;;;5074655;28;20447;-72
2022/11/09 00:16:03;;;;;;;;;;;14.60;99.90;;;;;;5093610;28;19908;-72
2022/11/09 00:18:29;;;;;;;;;;;14.60;99.90;;;;;;5090178;28;19916;-72
2022/11/09 00:20:55;;;;;;;;;;;14.60;99.90;;;;;;5092243;28;20255;-72
2022/11/09 00:23:21;;;;;;;;;;;14.60;99.90;;;;;;5090088;28;20367;-72
2022/11/09 00:25:46;;;;;;;;;;;14.60;99.90;;;;;;5072297;28;20279;-72
2022/11/09 00:28:12;;;;;;;;;;;14.50;99.90;;;;;;5071996;28;20398;-72
2022/11/09 00:30:38;;;;;;;;;;;14.60;99.90;;;;;;5072452;28;19909;-72
2022/11/09 00:33:04;;;;;;;;;;;14.70;99.90;;;;;;5055084;28;20371;-72
2022/11/09 00:35:30;;;;;;;;;;;14.70;99.90;;;;;;5073448;28;19909;-72
2022/11/09 00:37:55;;;;;;;;;;;14.70;99.90;;;;;;5073371;28;19909;-72
2022/11/09 00:40:21;;;;;;;;;;;14.70;99.90;;;;;;5057795;28;19909;-72
2022/11/09 00:42:46;;;;;;;;;;;14.60;99.90;;;;;;5058750;28;19919;-72
2022/11/09 00:45:12;;;;;;;;;;;14.70;99.90;;;;;;5073757;28;19916;-72
2022/11/09 00:47:38;;;;;;;;;;;14.70;99.90;;;;;;5070693;28;19924;-72
2022/11/09 00:53:06;;;;;;;;;;;14.70;99.90;;;;;;5070325;28;19919;-72
2022/11/09 00:55:32;;;;;;;;;;;14.70;99.90;;;;;;5066785;28;19917;-72
2022/11/09 00:57:57;;;;;;;;;;;14.70;99.90;;;;;;5066859;28;19921;-72
2022/11/09 01:00:23;;;;;;;;;;;14.70;99.90;;;;;;5055297;28;19947;-72
2022/11/09 01:02:49;;;;;;;;;;;14.70;99.90;;;;;;5078234;28;19951;-72
2022/11/09 01:05:14;;;;;;;;;;;14.80;99.90;;;;;;5071452;28;19912;-72
2022/11/09 01:07:40;;;;;;;;;;;14.70;99.90;;;;;;5083848;28;19956;-72
2022/11/09 01:10:06;;;;;;;;;;;14.80;99.90;;;;;;5077216;28;19908;-72
2022/11/09 01:12:32;;;;;;;;;;;14.80;99.90;;;;;;5070554;28;19919;-72
2022/11/09 01:14:57;;;;;;;;;;;14.80;99.90;;;;;;5090898;28;19908;-72
2022/11/09 01:17:23;;;;;;;;;;;14.80;99.90;;;;;;5069956;28;19920;-72
2022/11/09 01:19:49;;;;;;;;;;;14.80;99.90;;;;;;5064273;28;19913;-72
2022/11/09 01:22:15;;;;;;;;;;;14.90;99.90;;;;;;5087395;28;19923;-72
2022/11/09 01:24:41;;;;;;;;;;;14.90;99.90;;;;;;5089752;28;20332;-72
2022/11/09 01:27:06;;;;;;;;;;;14.90;99.90;;;;;;5085584;28;19920;-72
2022/11/09 01:29:32;;;;;;;;;;;14.90;99.90;;;;;;5086250;28;21994;-72
2022/11/09 01:31:58;;;;;;;;;;;15.00;99.90;;;;;;5084747;28;19920;-72
2022/11/09 01:34:23;;;;;;;;;;;14.90;99.90;;;;;;5085117;28;20000;-72
2022/11/09 01:36:50;;;;;;;;;;;14.90;99.90;;;;;;5087494;28;19915;-72
2022/11/09 01:39:16;;;;;;;;;;;14.90;99.90;;;;;;5096506;28;19980;-72
2022/11/09 01:41:42;;;;;;;;;;;14.90;99.90;;;;;;5094963;28;19923;-72
2022/11/09 01:44:12;;;;;;;;;;;14.90;99.90;;;;;;5094181;28;19919;-72
2022/11/09 01:46:50;;;;;;;;;;;14.90;99.90;;;;;;5074417;28;19915;-72
2022/11/09 01:49:16;;;;;;;;;;;14.90;99.90;;;;;;5061342;28;20363;-72
2022/11/09 01:51:44;;;;;;;;;;;14.90;99.90;;;;;;5083180;28;19912;-72
2022/11/09 01:54:15;;;;;;;;;;;14.90;99.90;;;;;;5062351;28;19920;-72
2022/11/09 01:56:42;;;;;;;;;;;14.90;99.90;;;;;;5077405;28;19954;-72
2022/11/09 01:59:10;;;;;;;;;;;14.90;99.90;;;;;;5077979;28;20426;-72
2022/11/09 02:01:36;;;;;;;;;;;14.90;99.90;;;;;;5088648;28;19916;-72
2022/11/09 02:04:08;;;;;;;;;;;14.90;99.90;;;;;;5079465;28;19916;-72
2022/11/09 02:06:34;;;;;;;;;;;15.00;99.90;;;;;;5067974;28;20394;-72
2022/11/09 02:09:06;;;;;;;;;;;15.00;99.90;;;;;;5092498;28;19995;-72
2022/11/09 02:11:33;;;;;;;;;;;14.90;99.90;;;;;;5058796;28;20385;-72
2022/11/09 02:13:59;;;;;;;;;;;15.00;99.90;;;;;;5076926;28;19916;-72
2022/11/09 02:16:26;;;;;;;;;;;14.90;99.90;;;;;;5083244;28;19912;-72
2022/11/09 02:18:56;;;;;;;;;;;14.90;99.90;;;;;;5068756;28;20050;-72
2022/11/09 02:21:23;;;;;;;;;;;14.90;99.90;;;;;;5080767;28;20041;-72
2022/11/09 02:23:50;;;;;;;;;;;14.90;99.90;;;;;;5075359;28;20082;-72
2022/11/09 02:26:23;;;;;;;;;;;15.00;99.90;;;;;;5067725;28;20014;-72
2022/11/09 02:28:49;;;;;;;;;;;15.10;99.90;;;;;;5069129;28;19920;-72
2022/11/09 02:31:15;;;;;;;;;;;15.00;99.90;;;;;;5074304;28;19912;-72
2022/11/09 02:33:42;;;;;;;;;;;15.10;99.90;;;;;;5069336;28;20392;-72
2022/11/09 02:36:08;;;;;;;;;;;15.10;99.90;;;;;;5072327;28;19913;-72
2022/11/09 02:38:33;;;;;;;;;;;15.10;99.90;;;;;;5072301;28;19919;-72
2022/11/09 02:40:59;;;;;;;;;;;15.10;99.90;;;;;;5067126;28;19916;-73
2022/11/09 02:43:25;;;;;;;;;;;15.10;99.90;;;;;;5075259;28;19920;-73
2022/11/09 02:45:50;;;;;;;;;;;15.20;99.90;;;;;;5056772;28;19916;-73
2022/11/09 02:48:16;;;;;;;;;;;15.20;99.90;;;;;;5072994;28;20392;-72
2022/11/09 02:50:42;;;;;;;;;;;15.20;99.90;;;;;;5076122;28;20343;-72
2022/11/09 02:53:07;;;;;;;;;;;15.20;99.90;;;;;;5076367;28;19908;-72
2022/11/09 02:55:33;;;;;;;;;;;15.20;99.90;;;;;;5095092;28;20297;-72
2022/11/09 02:57:58;;;;;;;;;;;15.30;99.90;;;;;;5071575;28;19913;-72
2022/11/09 03:00:24;;;;;;;;;;;15.30;99.90;;;;;;5075901;28;19908;-72
2022/11/09 03:02:50;;;;;;;;;;;15.20;99.90;;;;;;5089799;28;19959;-72
2022/11/09 03:05:15;;;;;;;;;;;15.20;99.90;;;;;;5094725;28;20281;-72
2022/11/09 03:07:41;;;;;;;;;;;15.20;99.90;;;;;;5091000;28;19908;-72
2022/11/09 03:10:07;;;;;;;;;;;15.30;99.90;;;;;;5061102;28;20286;-72
2022/11/09 03:12:33;;;;;;;;;;;15.20;99.90;;;;;;5069196;28;20350;-72
2022/11/09 03:14:59;;;;;;;;;;;15.30;99.90;;;;;;5081672;28;20421;-72
2022/11/09 03:17:25;;;;;;;;;;;15.30;99.90;;;;;;5087264;28;20369;-72
2022/11/09 03:19:51;;;;;;;;;;;15.30;99.90;;;;;;5076524;28;19934;-72
2022/11/09 03:22:17;;;;;;;;;;;15.30;99.90;;;;;;5094894;28;19912;-72
2022/11/09 03:24:42;;;;;;;;;;;15.30;99.90;;;;;;5086542;28;20341;-72
2022/11/09 03:27:08;;;;;;;;;;;15.30;99.90;;;;;;5082561;28;20344;-72
2022/11/09 03:29:34;;;;;;;;;;;15.30;99.90;;;;;;5074291;28;20321;-72
2022/11/09 03:31:59;;;;;;;;;;;15.30;99.90;;;;;;5075573;28;19918;-72
2022/11/09 03:34:25;;;;;;;;;;;15.40;99.90;;;;;;5083315;28;20030;-71
2022/11/09 03:36:51;;;;;;;;;;;15.30;99.90;;;;;;5075422;28;20281;-71
2022/11/09 03:39:16;;;;;;;;;;;15.30;99.90;;;;;;5093635;28;20385;-71
2022/11/09 03:41:42;;;;;;;;;;;15.30;99.90;;;;;;5093643;28;20007;-71
2022/11/09 03:44:08;;;;;;;;;;;15.30;99.90;;;;;;5067839;28;20239;-72
2022/11/09 03:46:33;;;;;;;;;;;15.30;99.90;;;;;;5078760;28;19916;-72
2022/11/09 03:48:59;;;;;;;;;;;15.30;99.90;;;;;;5073106;28;19912;-72
2022/11/09 03:51:25;;;;;;;;;;;15.30;99.90;;;;;;5071959;28;20404;-72
2022/11/09 03:53:50;;;;;;;;;;;15.30;99.90;;;;;;5069860;28;19969;-72
2022/11/09 03:56:16;;;;;;;;;;;15.30;99.90;;;;;;5080962;28;20426;-72
2022/11/09 03:58:42;;;;;;;;;;;15.30;99.90;;;;;;5073326;28;19912;-72
2022/11/09 04:01:08;;;;;;;;;;;15.40;99.90;;;;;;5072925;28;20008;-72
2022/11/09 04:03:33;;;;;;;;;;;15.50;99.90;;;;;;5077578;28;20394;-72
2022/11/09 04:05:59;;;;;;;;;;;15.50;99.90;;;;;;5068089;28;19912;-72
2022/11/09 04:08:25;;;;;;;;;;;15.40;99.90;;;;;;5083535;28;19943;-72
2022/11/09 04:10:50;;;;;;;;;;;15.40;99.90;;;;;;5085087;28;19914;-72
2022/11/09 04:13:16;;;;;;;;;;;15.40;99.90;;;;;;5088142;28;20520;-72
2022/11/09 04:15:42;;;;;;;;;;;15.50;99.90;;;;;;5088591;28;19965;-72
2022/11/09 04:18:10;;;;;;;;;;;15.50;99.90;;;;;;5097557;28;19962;-72
2022/11/09 04:20:36;;;;;;;;;;;15.60;99.90;;;;;;5097048;28;19908;-71
2022/11/09 04:23:03;;;;;;;;;;;15.60;99.90;;;;;;5092928;28;20298;-72
2022/11/09 04:25:31;;;;;;;;;;;15.60;99.90;;;;;;5088308;28;19916;-71
2022/11/09 04:28:03;;;;;;;;;;;15.50;99.90;;;;;;5078499;28;20487;-72
2022/11/09 04:30:32;;;;;;;;;;;15.50;99.90;;;;;;5096565;28;20246;-71
2022/11/09 04:33:01;;;;;;;;;;;15.60;99.90;;;;;;5075062;28;19958;-71
2022/11/09 04:35:28;;;;;;;;;;;15.60;99.90;;;;;;5086595;28;19912;-72
2022/11/09 04:37:57;;;;;;;;;;;15.60;99.90;;;;;;5076398;28;19964;-72
2022/11/09 04:40:24;;;;;;;;;;;15.60;99.90;;;;;;5096263;28;19908;-72
2022/11/09 04:42:50;;;;;;;;;;;15.50;99.90;;;;;;5093424;28;19958;-72
2022/11/09 04:45:15;;;;;;;;;;;15.60;99.90;;;;;;5087999;28;19944;-71
2022/11/09 04:47:41;;;;;;;;;;;15.60;99.90;;;;;;5097269;28;19969;-72
2022/11/09 04:50:07;;;;;;;;;;;15.60;99.90;;;;;;5097777;28;19915;-72
2022/11/09 04:53:06;;;;;;;;;;;;;;;;;;;;;
2022/11/09 04:55:33;;;;;;;;;;;15.70;99.90;;;;;;5074542;28;20289;-72
2022/11/09 04:57:58;;;;;;;;;;;15.60;99.90;;;;;;5076460;28;19972;-72
2022/11/09 05:00:26;;;;;;;;;;;15.70;99.90;;;;;;5076689;28;19931;-72
2022/11/09 05:02:51;;;;;;;;;;;15.70;99.90;;;;;;5076653;28;19916;-72
2022/11/09 05:05:17;;;;;;;;;;;15.80;99.90;;;;;;5077674;28;19956;-72
2022/11/09 05:07:43;;;;;;;;;;;15.80;99.90;;;;;;5061735;28;19909;-72
2022/11/09 05:10:08;;;;;;;;;;;15.80;99.90;;;;;;5094196;28;20397;-72
2022/11/09 05:12:34;;;;;;;;;;;15.70;99.90;;;;;;5097006;28;19915;-72
2022/11/09 05:15:00;;;;;;;;;;;15.60;99.90;;;;;;5091525;28;19915;-72
2022/11/09 05:17:25;;;;;;;;;;;15.60;99.90;;;;;;5078436;28;19912;-72
2022/11/09 05:19:51;;;;;;;;;;;15.70;99.90;;;;;;5096820;28;19908;-72
2022/11/09 05:25:01;;;;;;;;;;;15.80;99.90;;;;;;5072639;28;19934;-72
2022/11/09 05:27:26;;;;;;;;;;;15.80;99.90;;;;;;5088208;28;20012;-72
2022/11/09 05:29:52;;;;;;;;;;;15.90;99.90;;;;;;5078441;28;19958;-72
2022/11/09 05:32:18;;;;;;;;;;;15.80;99.90;;;;;;5078050;28;19912;-72
2022/11/09 05:34:43;;;;;;;;;;;15.70;99.90;;;;;;5071942;28;19908;-72
2022/11/09 05:37:09;;;;;;;;;;;15.70;99.90;;;;;;5093515;28;19920;-72
2022/11/09 05:39:35;;;;;;;;;;;15.70;99.90;;;;;;5096995;28;20019;-72
2022/11/09 05:42:00;;;;;;;;;;;15.90;99.90;;;;;;5095140;28;19912;-72
2022/11/09 05:44:26;;;;;;;;;;;16.00;99.90;;;;;;5086049;28;19914;-72
2022/11/09 05:46:52;;;;;;;;;;;15.90;99.90;;;;;;5087195;28;19916;-72
2022/11/09 05:49:17;;;;;;;;;;;15.90;99.90;;;;;;5095284;28;19908;-72
2022/11/09 05:51:43;;;;;;;;;;;16.00;99.90;;;;;;5095284;28;19915;-71
2022/11/09 05:54:09;;;;;;;;;;;16.00;99.90;;;;;;5079914;28;19916;-72
2022/11/09 05:56:34;;;;;;;;;;;16.00;99.90;;;;;;5070638;28;19912;-72
2022/11/09 05:59:00;;;;;;;;;;;16.00;99.90;;;;;;5075099;28;20385;-72
2022/11/09 06:01:26;;;;;;;;;;;15.90;99.90;;;;;;5073767;28;19912;-72
2022/11/09 06:03:54;;;;;;;;;;;15.90;99.90;;;;;;5068246;28;20037;-71
2022/11/09 06:06:20;;;;;;;;;;;15.90;99.90;;;;;;5086740;28;19919;-72
2022/11/09 06:08:46;;;;;;;;;;;15.90;99.90;;;;;;5095615;28;19912;-72
2022/11/09 06:11:12;;;;;;;;;;;15.90;99.90;;;;;;5095303;28;20003;-72
2022/11/09 06:13:38;;;;;;;;;;;15.90;99.90;;;;;;5091228;28;19908;-72
2022/11/09 06:16:04;;;;;;;;;;;15.90;99.90;;;;;;5086722;28;20432;-72
2022/11/09 06:18:31;;;;;;;;;;;15.90;99.90;;;;;;5095520;28;19908;-72
2022/11/09 06:20:58;;;;;;;;;;;15.90;99.90;;;;;;5095306;28;19912;-72
2022/11/09 06:23:28;;;;;;;;;;;15.90;99.90;;;;;;5084966;28;19912;-72
2022/11/09 06:25:56;;;;;;;;;;;15.80;99.90;;;;;;5087500;28;19916;-72
2022/11/09 06:28:22;;;;;;;;;;;15.90;99.90;;;;;;5096110;28;19954;-72
2022/11/09 06:30:47;;;;;;;;;;;15.90;99.90;;;;;;5093731;28;19912;-72
2022/11/09 06:33:13;;;;;;;;;;;15.80;99.90;;;;;;5088780;28;19999;-72
2022/11/09 06:35:39;;;;;;;;;;;15.80;99.90;;;;;;5088430;28;19999;-72
2022/11/09 06:38:04;;;;;;;;;;;15.90;99.90;;;;;;5076612;28;20006;-72
2022/11/09 06:40:30;;;;;;;;;;;16.00;99.90;;;;;;5076880;28;19909;-72
2022/11/09 06:42:57;;;;;;;;;;;16.00;99.90;;;;;;5090711;28;20331;-72
2022/11/09 06:45:22;;;;;;;;;;;16.00;99.90;;;;;;5075763;28;20000;-72
2022/11/09 06:47:48;;;;;;;;;;;16.10;99.90;;;;;;5094715;28;19941;-72
2022/11/09 06:50:14;;;;;;;;;;;16.20;99.90;;;;;;5094564;28;20380;-72
2022/11/09 06:52:39;;;;;;;;;;;16.10;99.90;;;;;;5074742;28;20007;-72
2022/11/09 06:55:07;;;;;;;;;;;16.10;99.90;;;;;;5084347;28;19909;-72
2022/11/09 06:57:32;;;;;;;;;;;16.00;99.90;;;;;;5094420;28;19918;-72
2022/11/09 06:59:59;;;;;;;;;;;16.10;99.90;;;;;;5094850;28;20002;-72
2022/11/09 07:02:24;;;;;;;;;;;16.10;99.90;;;;;;5094372;28;19942;-72
2022/11/09 07:04:51;;;;;;;;;;;16.10;99.90;;;;;;5088244;28;19912;-73
2022/11/09 07:07:16;;;;;;;;;;;16.20;99.90;;;;;;5074297;28;19908;-72
2022/11/09 07:09:42;;;;;;;;;;;16.20;99.90;;;;;;5081389;28;19979;-72
2022/11/09 07:12:08;;;;;;;;;;;16.20;99.90;;;;;;5083144;28;20248;-73
2022/11/09 07:14:33;;;;;;;;;;;16.20;99.90;;;;;;5087059;28;20252;-72
2022/11/09 07:16:59;;;;;;;;;;;16.20;99.90;;;;;;5075812;28;20378;-72
2022/11/09 07:19:25;;;;;;;;;;;16.30;99.90;;;;;;5094232;28;19997;-72
2022/11/09 07:21:50;;;;;;;;;;;16.20;99.90;;;;;;5076169;28;19971;-72
2022/11/09 07:24:16;;;;;;;;;;;16.30;99.90;;;;;;5076426;28;20401;-72
2022/11/09 07:26:42;;;;;;;;;;;16.30;99.90;;;;;;5073917;28;20461;-72
2022/11/09 07:29:07;;;;;;;;;;;16.30;99.90;;;;;;5072691;28;20375;-73
2022/11/09 07:31:33;;;;;;;;;;;16.30;99.90;;;;;;5074572;28;19977;-72
2022/11/09 07:34:03;;;;;;;;;;;16.40;99.90;;;;;;5073907;28;19912;-72
2022/11/09 07:36:30;;;;;;;;;;;16.30;99.90;;;;;;5073841;28;20282;-72
2022/11/09 07:38:56;;;;;;;;;;;16.30;99.90;;;;;;5060544;28;19937;-72
2022/11/09 07:41:22;;;;;;;;;;;16.40;99.90;;;;;;5093268;28;19916;-72
2022/11/09 07:43:47;;;;;;;;;;;16.50;99.90;;;;;;5094380;28;20270;-72
2022/11/09 07:46:13;;;;;;;;;;;16.50;99.90;;;;;;5094010;28;19912;-72
2022/11/09 07:48:39;;;;;;;;;;;16.50;99.90;;;;;;5097414;28;19908;-72
2022/11/09 07:51:04;;;;;;;;;;;16.50;99.90;;;;;;5090785;28;19927;-72
2022/11/09 07:53:30;;;;;;;;;;;16.60;99.90;;;;;;5099639;28;19908;-72
2022/11/09 07:56:00;;;;;;;;;;;16.60;99.90;;;;;;5100523;28;19908;-72
2022/11/09 07:58:26;;;;;;;;;;;16.70;99.90;;;;;;5101016;28;19915;-72
2022/11/09 08:00:51;;;;;;;;;;;16.60;99.90;;;;;;5101142;28;19916;-72
2022/11/09 08:03:18;;;;;;;;;;;16.60;99.90;;;;;;5068084;28;19915;-72
2022/11/09 08:05:44;;;;;;;;;;;16.60;99.90;;;;;;5091459;28;19951;-72
2022/11/09 08:08:10;;;;;;;;;;;16.70;99.90;;;;;;5079401;28;20408;-73
2022/11/09 08:10:36;;;;;;;;;;;16.60;99.90;;;;;;5078543;28;20362;-72
2022/11/09 08:13:03;;;;;;;;;;;16.60;99.90;;;;;;5077792;28;19935;-72
2022/11/09 08:15:29;;;;;;;;;;;16.60;99.90;;;;;;5076544;28;19931;-72
2022/11/09 08:18:02;;;;;;;;;;;16.70;99.90;;;;;;5088307;28;20391;-72
2022/11/09 08:20:28;;;;;;;;;;;16.90;99.90;;;;;;5079925;28;20000;-72
2022/11/09 08:22:54;;;;;;;;;;;17.00;99.90;;;;;;5100549;28;19954;-73
2022/11/09 08:25:19;;;;;;;;;;;17.00;99.90;;;;;;5082262;28;19928;-73
2022/11/09 08:27:45;;;;;;;;;;;16.90;99.90;;;;;;5100303;28;19993;-72
2022/11/09 08:30:12;;;;;;;;;;;17.00;99.90;;;;;;5081103;28;20012;-72
2022/11/09 08:32:39;;;;;;;;;;;17.00;99.90;;;;;;5082000;28;19908;-72
2022/11/09 08:35:05;;;;;;;;;;;16.90;99.90;;;;;;5100401;28;19948;-72
2022/11/09 08:37:40;;;;;;;;;;;17.10;99.90;;;;;;5100534;28;19915;-72
2022/11/09 08:43:01;;;;;;;;;;;17.10;99.90;;;;;;5100376;28;20348;-72
2022/11/09 08:45:33;;;;;;;;;;;17.10;99.90;;;;;;5074468;28;19912;-72
2022/11/09 08:47:59;;;;;;;;;;;17.10;99.90;;;;;;5091052;28;19908;-73
2022/11/09 08:50:25;;;;;;;;;;;17.10;99.90;;;;;;5081882;28;19930;-73
2022/11/09 08:52:51;;;;;;;;;;;17.10;99.90;;;;;;5089814;28;19916;-72
2022/11/09 08:55:17;;;;;;;;;;;17.00;99.90;;;;;;5088634;28;19920;-72
2022/11/09 08:57:42;;;;;;;;;;;17.00;99.90;;;;;;5066367;28;19916;-73
2022/11/09 09:00:08;;;;;;;;;;;16.90;99.90;;;;;;5073891;28;19934;-73
2022/11/09 09:02:34;;;;;;;;;;;16.90;99.90;;;;;;5067605;28;20023;-73
2022/11/09 09:05:00;;;;;;;;;;;17.00;99.90;;;;;;5075621;28;19920;-73
2022/11/09 09:07:26;;;;;;;;;;;17.00;99.90;;;;;;5082629;28;20216;-73
2022/11/09 09:09:51;;;;;;;;;;;17.00;99.90;;;;;;5071113;28;19919;-77
2022/11/09 09:12:19;;;;;;;;;;;17.00;99.90;;;;;;5074814;28;20417;-73
2022/11/09 09:14:45;;;;;;;;;;;16.90;99.90;;;;;;5080193;28;20003;-72
2022/11/09 09:17:11;;;;;;;;;;;16.90;99.90;;;;;;5074278;28;19915;-73
2022/11/09 09:19:36;;;;;;;;;;;16.90;99.90;;;;;;5075958;28;20003;-72
2022/11/09 09:22:02;;;;;;;;;;;17.00;99.90;;;;;;5070681;28;20011;-74
2022/11/09 09:24:28;;;;;;;;;;;17.00;99.90;;;;;;5081505;28;19974;-73
2022/11/09 09:26:54;;;;;;;;;;;17.10;99.90;;;;;;5076804;28;19912;-73
2022/11/09 09:29:20;;;;;;;;;;;17.10;99.90;;;;;;5062172;28;19912;-73
2022/11/09 09:31:45;;;;;;;;;;;17.10;99.90;;;;;;5077147;28;19912;-73
2022/11/09 09:34:11;;;;;;;;;;;17.20;99.90;;;;;;5076379;28;19920;-73
2022/11/09 09:36:37;;;;;;;;;;;17.30;99.90;;;;;;5081925;28;20372;-73
2022/11/09 09:39:03;;;;;;;;;;;17.20;99.90;;;;;;5080478;28;20050;-73
2022/11/09 09:41:36;;;;;;;;;;;17.20;99.90;;;;;;5076844;28;19917;-73
2022/11/09 09:44:24;;;;;;;;;;;17.10;99.90;;;;;;5088337;28;19920;-73
2022/11/09 09:46:53;;;;;;;;;;;17.10;99.90;;;;;;5063675;28;19916;-73
2022/11/09 09:49:29;;;;;;;;;;;17.20;99.90;;;;;;5066607;28;19912;-72
2022/11/09 09:52:04;;;;;;;;;;;17.20;99.90;;;;;;5067040;28;20295;-73
2022/11/09 09:54:35;;;;;;;;;;;17.20;99.90;;;;;;5075019;28;19912;-72
2022/11/09 09:57:02;;;;;;;;;;;17.20;99.90;;;;;;5072365;28;20187;-73
2022/11/09 09:59:37;;;;;;;;;;;17.20;99.90;;;;;;5069884;28;20361;-74
2022/11/09 10:02:21;;;;;;;;;;;17.20;99.90;;;;;;5065812;28;19920;-73
2022/11/09 10:04:47;;;;;;;;;;;17.20;99.90;;;;;;5068297;28;19913;-73
2022/11/09 10:07:12;;;;;;;;;;;17.20;99.90;;;;;;5049196;28;20294;-73
2022/11/09 10:09:50;;;;;;;;;;;17.20;99.90;;;;;;5071404;28;19966;-73
2022/11/09 10:12:21;;;;;;;;;;;17.20;99.90;;;;;;5060957;28;19916;-73
2022/11/09 10:14:53;;;;;;;;;;;17.10;99.90;;;;;;5056415;28;19961;-73
2022/11/09 10:17:25;;;;;;;;;;;17.10;99.90;;;;;;5054773;28;20259;-73
2022/11/09 10:20:00;;;;;;;;;;;17.00;99.90;;;;;;5066975;28;19912;-73
2022/11/09 10:22:33;;;;;;;;;;;17.10;99.90;;;;;;5055115;28;19946;-73
2022/11/09 10:25:11;;;;;;;;;;;17.10;99.90;;;;;;5056646;28;19939;-73
2022/11/09 10:27:50;;;;;;;;;;;17.10;99.90;;;;;;5074625;28;19979;-73
2022/11/09 10:30:17;;;;;;;;;;;17.00;99.90;;;;;;5056478;28;19919;-72
2022/11/09 10:32:44;;;;;;;;;;;17.00;99.90;;;;;;5073951;28;19917;-73
2022/11/09 10:35:19;;;;;;;;;;;17.00;99.90;;;;;;5061752;28;20428;-72
2022/11/09 10:37:47;;;;;;;;;;;17.10;99.90;;;;;;5069404;28;20321;-72
2022/11/09 10:40:20;;;;;;;;;;;17.10;99.90;;;;;;5068685;28;19944;-73
2022/11/09 10:43:16;;;;;;;;;;;;;;;;;;;;;
2022/11/09 10:45:43;;;;;;;;;;;17.00;99.90;;;;;;5045983;28;19932;-73
2022/11/09 10:48:20;;;;;;;;;;;17.00;99.90;;;;;;5068433;28;20439;-73
2022/11/09 10:50:50;;;;;;;;;;;17.10;99.90;;;;;;5075258;28;19915;-73
2022/11/09 10:53:18;;;;;;;;;;;17.10;99.90;;;;;;5055774;28;19913;-73
2022/11/09 10:55:51;;;;;;;;;;;17.10;99.90;;;;;;5057050;28;19909;-73
2022/11/09 10:58:36;;;;;;;;;;;17.10;99.90;;;;;;5053926;28;20405;-73
2022/11/09 11:01:02;;;;;;;;;;;17.20;99.90;;;;;;5058868;28;19974;-74
2022/11/09 11:03:28;;;;;;;;;;;17.20;99.90;;;;;;5086136;28;19908;-73
2022/11/09 11:05:58;;;;;;;;;;;17.20;99.90;;;;;;5060621;28;20003;-74
2022/11/09 11:08:30;;;;;;;;;;;17.20;99.90;;;;;;5067394;28;20333;-73
2022/11/09 11:11:10;;;;;;;;;;;17.20;99.90;;;;;;5068788;28;19916;-74
2022/11/09 11:13:36;;;;;;;;;;;17.20;99.90;;;;;;5056074;28;19913;-73
2022/11/09 11:16:12;;;;;;;;;;;17.20;99.90;;;;;;5071882;28;20519;-73
2022/11/09 11:18:42;;;;;;;;;;;17.30;99.90;;;;;;5054711;28;19951;-72
2022/11/09 11:21:11;;;;;;;;;;;17.30;99.90;;;;;;5075464;28;19920;-72
2022/11/09 11:23:47;;;;;;;;;;;17.30;99.90;;;;;;5070882;28;20370;-73
2022/11/09 11:26:19;;;;;;;;;;;17.40;99.90;;;;;;5080431;28;19947;-73
2022/11/09 11:28:52;;;;;;;;;;;17.40;99.90;;;;;;5058836;28;19912;-73
2022/11/09 11:31:19;;;;;;;;;;;17.50;99.90;;;;;;5072144;28;19916;-72
2022/11/09 11:33:45;;;;;;;;;;;17.60;99.90;;;;;;5066667;28;20043;-73
2022/11/09 11:36:22;;;;;;;;;;;17.60;99.90;;;;;;5063925;28;19920;-73
2022/11/09 11:38:55;;;;;;;;;;;17.60;99.90;;;;;;5076260;28;19915;-73
2022/11/09 11:41:27;;;;;;;;;;;17.60;99.90;;;;;;5071586;28;20377;-73
2022/11/09 11:43:59;;;;;;;;;;;17.60;99.90;;;;;;5077046;28;19984;-73
2022/11/09 11:46:31;;;;;;;;;;;17.60;99.90;;;;;;5083750;28;19908;-73
2022/11/09 11:49:12;;;;;;;;;;;17.60;99.90;;;;;;5046421;28;19913;-73
2022/11/09 11:51:41;;;;;;;;;;;17.60;99.90;;;;;;5073441;28;19988;-73
2022/11/09 11:54:17;;;;;;;;;;;17.60;99.90;;;;;;5056827;28;19919;-73
2022/11/09 11:57:01;;;;;;;;;;;17.60;99.90;;;;;;5061022;28;19917;-73
2022/11/09 11:59:46;;;;;;;;;;;17.60;99.90;;;;;;5053100;28;19995;-72
2022/11/09 12:02:31;;;;;;;;;;;17.50;99.90;;;;;;5074518;28;19940;-73
2022/11/09 12:05:15;;;;;;;;;;;17.50;99.90;;;;;;5066076;28;19912;-73
2022/11/09 12:07:51;;;;;;;;;;;17.50;99.90;;;;;;5073396;28;19916;-72
2022/11/09 12:10:23;;;;;;;;;;;17.60;99.90;;;;;;5068556;28;20392;-73
2022/11/09 12:13:03;;;;;;;;;;;17.60;99.90;;;;;;5066567;28;20336;-73
2022/11/09 12:15:48;;;;;;;;;;;17.60;99.90;;;;;;5068319;28;19920;-74
2022/11/09 12:18:32;;;;;;;;;;;17.60;99.90;;;;;;5083455;28;19916;-73
2022/11/09 12:21:16;;;;;;;;;;;17.50;99.90;;;;;;5063633;28;19913;-73
2022/11/09 12:23:42;;;;;;;;;;;17.60;99.90;;;;;;5067152;28;20004;-73
2022/11/09 12:26:13;;;;;;;;;;;17.50;99.90;;;;;;5055970;28;19970;-73
2022/11/09 12:28:42;;;;;;;;;;;17.50;99.90;;;;;;5050836;28;19908;-73
2022/11/09 12:31:11;;;;;;;;;;;17.60;99.90;;;;;;5071878;28;19913;-73
2022/11/09 12:33:45;;;;;;;;;;;17.60;99.90;;;;;;5073691;28;19913;-73
2022/11/09 12:36:15;;;;;;;;;;;17.60;99.90;;;;;;5076908;28;19908;-73
2022/11/09 12:38:57;;;;;;;;;;;17.70;99.90;;;;;;5060323;28;19952;-73
2022/11/09 12:41:26;;;;;;;;;;;17.70;99.90;;;;;;5062666;28;19916;-73
2022/11/09 12:43:52;;;;;;;;;;;17.60;99.90;;;;;;5073528;28;19951;-75
2022/11/09 12:46:19;;;;;;;;;;;17.60;99.90;;;;;;5064967;28;19912;-73
2022/11/09 12:48:45;;;;;;;;;;;17.50;99.90;;;;;;5054871;28;19912;-62
2022/11/09 12:51:11;;;;;;;;;;;17.50;99.90;;;;;;5061170;28;19919;-64
2022/11/09 12:53:37;;;;;;;;;;;17.40;99.90;;;;;;5072220;28;19921;-65
2022/11/09 12:56:08;;;;;;;;;;;17.40;99.90;;;;;;5080929;28;19920;-64
2022/11/09 12:58:35;;;;;;;;;;;17.40;99.90;;;;;;5063598;28;20381;-61
2022/11/09 13:01:03;;;;;;;;;;;17.50;99.90;;;;;;5051430;28;20082;-63
2022/11/09 13:03:33;;;;;;;;;;;17.50;99.90;;;;;;5074694;28;19919;-61
2022/11/09 13:06:14;;;;;;;;;;;17.40;99.90;;;;;;5077867;28;19916;-59
2022/11/09 13:08:41;;;;;;;;;;;17.40;99.90;;;;;;5052326;28;19920;-62
2022/11/09 13:11:09;;;;;;;;;;;17.40;99.90;;;;;;5082608;28;20631;-62
2022/11/09 13:13:35;;;;;;;;;;;17.40;99.90;;;;;;5079425;28;19912;-62
2022/11/09 13:16:07;;;;;;;;;;;17.30;99.90;;;;;;5064338;28;19912;-59
2022/11/09 13:18:33;;;;;;;;;;;17.30;99.90;;;;;;5075970;28;19948;-62
2022/11/09 13:21:17;;;;;;;;;;;17.30;99.90;;;;;;5066080;28;19962;-63
2022/11/09 13:23:45;;;;;;;;;;;17.30;99.90;;;;;;5072829;28;19921;-72
2022/11/09 13:26:22;;;;;;;;;;;17.30;99.90;;;;;;5066024;28;19912;-73
2022/11/09 13:29:07;;;;;;;;;;;17.30;99.90;;;;;;5084200;28;20456;-73
2022/11/09 13:31:57;;;;;;;;;;;17.20;99.90;;;;;;5078012;28;19970;-73
2022/11/09 13:34:44;;;;;;;;;;;17.20;99.90;;;;;;5027188;28;19949;-73
2022/11/09 13:37:28;;;;;;;;;;;17.20;99.90;;;;;;5016021;28;19978;-72
2022/11/09 13:39:54;;;;;;;;;;;17.20;99.90;;;;;;5079784;28;19946;-73
2022/11/09 13:42:25;;;;;;;;;;;17.30;99.90;;;;;;5054808;28;19916;-73
2022/11/09 13:44:51;;;;;;;;;;;17.30;99.90;;;;;;5083991;28;19912;-73
2022/11/09 13:47:35;;;;;;;;;;;17.20;99.90;;;;;;5082566;28;19920;-73
2022/11/09 13:50:07;;;;;;;;;;;17.10;99.90;;;;;;5089606;28;19912;-73
2022/11/09 13:52:46;;;;;;;;;;;17.10;99.90;;;;;;5074903;28;20000;-73
2022/11/09 13:55:17;;;;;;;;;;;17.00;99.90;;;;;;5069726;28;19967;-73
2022/11/09 13:57:52;;;;;;;;;;;17.00;99.90;;;;;;5050171;28;19916;-73
2022/11/09 14:00:22;;;;;;;;;;;17.00;99.90;;;;;;5071459;28;19940;-73
2022/11/09 14:02:54;;;;;;;;;;;17.00;99.90;;;;;;5068192;28;19916;-72
2022/11/09 14:05:24;;;;;;;;;;;16.90;99.90;;;;;;5068949;28;19917;-73
2022/11/09 14:07:51;;;;;;;;;;;16.90;99.90;;;;;;5084465;28;20321;-73
2022/11/09 14:10:36;;;;;;;;;;;16.90;99.90;;;;;;5079324;28;19913;-73
2022/11/09 14:13:30;;;;;;;;;;;16.90;99.90;;;;;;5075379;28;20378;-72
2022/11/09 14:16:05;;;;;;;;;;;17.00;99.90;;;;;;5064597;28;19913;-72
2022/11/09 14:18:50;;;;;;;;;;;17.00;99.90;;;;;;5073458;28;20409;-72
2022/11/09 14:21:34;;;;;;;;;;;16.90;99.90;;;;;;5097194;28;19962;-72
2022/11/09 14:24:31;;;;;;;;;;;16.90;99.90;;;;;;5069827;28;19958;-72
2022/11/09 14:30:01;;;;;;;;;;;16.90;99.90;;;;;;5073407;28;19974;-72
2022/11/09 14:33:02;;;;;;;;;;;17.00;99.90;;;;;;5077678;28;19916;-72
2022/11/09 14:35:49;;;;;;;;;;;16.90;99.90;;;;;;5041146;28;19913;-72
2022/11/09 14:38:26;;;;;;;;;;;16.90;99.90;;;;;;5057181;28;19920;-72
2022/11/09 14:40:53;;;;;;;;;;;16.90;99.90;;;;;;5047911;28;20113;-72